createdAt,value
2022-10-17T00:01:53.871Z,15.97
2022-10-17T00:04:23.246Z,15.97
2022-10-17T00:06:52.532Z,15.98
2022-10-17T00:09:21.802Z,15.95
2022-10-17T00:11:51.076Z,15.94
2022-10-17T00:14:20.398Z,15.98
2022-10-17T00:16:49.665Z,15.96
2022-10-17T00:19:18.939Z,15.98
2022-10-17T00:21:48.298Z,15.98
2022-10-17T00:24:17.599Z,15.99
2022-10-17T00:26:46.883Z,16.01
2022-10-17T00:29:16.170Z,16.00
2022-10-17T00:31:45.502Z,16.05
2022-10-17T00:34:14.832Z,16.05
2022-10-17T00:36:44.224Z,16.09
2022-10-17T00:39:13.533Z,16.10
2022-10-17T00:41:43.120Z,16.08
2022-10-17T00:44:34.214Z,16.12
2022-10-17T00:47:09.204Z,16.14
2022-10-17T00:49:39.981Z,16.16
2022-10-17T00:52:14.579Z,16.17
2022-10-17T00:54:48.898Z,16.22
2022-10-17T00:57:19.683Z,16.23
2022-10-17T00:59:54.275Z,16.23
2022-10-17T01:02:25.126Z,16.24
2022-10-17T01:04:57.115Z,16.24
2022-10-17T01:07:26.610Z,16.24
2022-10-17T01:09:56.379Z,16.24
2022-10-17T01:12:35.405Z,16.25
2022-10-17T01:15:17.113Z,16.26
2022-10-17T01:18:18.751Z,16.25
2022-10-17T01:21:06.946Z,16.27
2022-10-17T01:23:55.025Z,16.27
2022-10-17T01:26:42.810Z,16.28
2022-10-17T01:30:14.140Z,16.27
2022-10-17T01:32:51.125Z,16.30
2022-10-17T01:36:05.664Z,16.32
2022-10-17T01:38:45.739Z,16.33
2022-10-17T01:41:28.027Z,16.28
2022-10-17T01:44:03.172Z,16.36
2022-10-17T01:46:44.790Z,16.38
2022-10-17T01:49:17.222Z,16.40
2022-10-17T01:51:54.439Z,16.45
2022-10-17T01:54:49.376Z,16.48
2022-10-17T01:57:36.882Z,16.50
2022-10-17T02:00:11.267Z,16.49
2022-10-17T02:02:44.930Z,16.56
2022-10-17T02:05:15.114Z,16.55
2022-10-17T02:07:44.827Z,16.53
2022-10-17T02:10:24.505Z,16.55
2022-10-17T02:13:02.327Z,16.56
2022-10-17T02:15:39.354Z,16.59
2022-10-17T02:18:19.478Z,16.60
2022-10-17T02:21:03.428Z,16.57
2022-10-17T02:23:42.408Z,16.53
2022-10-17T02:26:28.647Z,16.55
2022-10-17T02:29:18.594Z,16.56
2022-10-17T02:31:57.241Z,16.55
2022-10-17T02:34:39.181Z,16.52
2022-10-17T02:37:11.098Z,16.50
2022-10-17T02:39:42.776Z,16.50
2022-10-17T02:42:16.584Z,16.52
2022-10-17T02:44:48.330Z,16.53
2022-10-17T02:47:27.242Z,16.53
2022-10-17T02:50:01.231Z,16.47
2022-10-17T02:52:44.503Z,16.48
2022-10-17T02:55:21.892Z,16.48
2022-10-17T02:58:13.368Z,16.43
2022-10-17T03:00:44.123Z,16.42
2022-10-17T03:03:32.171Z,16.44
2022-10-17T03:06:04.909Z,16.44
2022-10-17T03:08:34.238Z,16.43
2022-10-17T03:11:03.635Z,16.44
2022-10-17T03:13:36.230Z,16.44
2022-10-17T03:16:08.947Z,16.38
2022-10-17T03:18:38.882Z,16.46
2022-10-17T03:21:08.517Z,16.50
2022-10-17T03:23:38.322Z,16.51
2022-10-17T03:26:09.864Z,16.51
2022-10-17T03:28:39.674Z,16.55
2022-10-17T03:31:13.866Z,16.54
2022-10-17T03:33:43.819Z,16.54
2022-10-17T03:36:16.551Z,16.53
2022-10-17T03:38:48.115Z,16.49
2022-10-17T03:41:19.350Z,16.56
2022-10-17T03:43:48.923Z,16.52
2022-10-17T03:49:08.827Z,16.54
2022-10-17T03:51:38.979Z,16.58
2022-10-17T03:54:13.675Z,16.59
2022-10-17T03:56:43.936Z,16.58
2022-10-17T03:59:17.785Z,16.60
2022-10-17T04:01:55.403Z,16.61
2022-10-17T04:04:25.246Z,16.63
2022-10-17T04:06:54.518Z,16.62
2022-10-17T04:09:23.935Z,16.63
2022-10-17T04:11:59.720Z,16.62
2022-10-17T04:14:29.348Z,16.65
2022-10-17T04:16:59.036Z,16.66
2022-10-17T04:19:29.798Z,16.65
2022-10-17T04:21:59.443Z,16.64
2022-10-17T04:24:30.450Z,16.61
2022-10-17T04:27:08.714Z,16.57
2022-10-17T04:29:41.704Z,16.60
2022-10-17T04:32:19.147Z,16.64
2022-10-17T04:35:17.657Z,16.65
2022-10-17T04:37:52.003Z,16.67
2022-10-17T04:40:22.991Z,16.70
2022-10-17T04:42:54.966Z,16.71
2022-10-17T04:45:31.695Z,16.79
2022-10-17T04:48:04.834Z,16.76
2022-10-17T04:50:34.248Z,16.82
2022-10-17T04:53:29.631Z,16.83
2022-10-17T04:55:59.112Z,16.83
2022-10-17T04:58:28.591Z,16.83
2022-10-17T05:00:58.089Z,16.81
2022-10-17T05:03:30.884Z,16.83
2022-10-17T05:06:00.270Z,16.83
2022-10-17T05:08:29.547Z,16.80
2022-10-17T05:13:58.375Z,16.80
2022-10-17T05:16:29.142Z,16.75
2022-10-17T05:19:00.429Z,16.79
2022-10-17T05:21:37.377Z,16.81
2022-10-17T05:24:12.595Z,16.80
2022-10-17T05:26:42.530Z,16.80
2022-10-17T05:29:11.940Z,16.83
2022-10-17T05:31:47.389Z,16.81
2022-10-17T05:34:16.758Z,16.85
2022-10-17T05:36:47.683Z,16.83
2022-10-17T05:39:20.796Z,16.86
2022-10-17T05:41:52.792Z,16.84
2022-10-17T05:44:22.175Z,16.84
2022-10-17T05:46:56.796Z,16.85
2022-10-17T05:49:33.420Z,16.86
2022-10-17T05:52:13.455Z,16.89
2022-10-17T05:55:03.032Z,16.88
2022-10-17T05:57:32.418Z,16.89
2022-10-17T06:00:02.941Z,16.91
2022-10-17T06:02:43.649Z,16.95
2022-10-17T06:05:16.487Z,16.89
2022-10-17T06:07:46.278Z,17.00
2022-10-17T06:10:17.371Z,17.00
2022-10-17T06:12:47.259Z,17.00
2022-10-17T06:15:17.791Z,16.97
2022-10-17T06:17:52.830Z,17.01
2022-10-17T06:20:22.192Z,17.01
2022-10-17T06:22:52.275Z,16.98
2022-10-17T06:25:36.704Z,17.02
2022-10-17T06:28:06.587Z,17.01
2022-10-17T06:30:35.855Z,17.03
2022-10-17T06:33:05.548Z,17.07
2022-10-17T06:35:34.878Z,17.09
2022-10-17T06:38:04.444Z,17.07
2022-10-17T06:40:37.182Z,17.12
2022-10-17T06:43:07.427Z,17.17
2022-10-17T06:48:41.365Z,17.26
2022-10-17T06:51:25.083Z,17.27
2022-10-17T06:53:59.727Z,17.32
2022-10-17T06:56:36.138Z,17.09
2022-10-17T06:59:24.401Z,17.37
2022-10-17T07:02:05.380Z,17.44
2022-10-17T07:04:35.179Z,17.50
2022-10-17T07:07:04.961Z,17.54
2022-10-17T07:09:36.693Z,17.58
2022-10-17T07:12:08.389Z,17.64
2022-10-17T07:14:38.286Z,17.70
2022-10-17T07:17:07.710Z,17.78
2022-10-17T07:19:37.032Z,17.83
2022-10-17T07:22:06.364Z,17.89
2022-10-17T07:24:37.028Z,17.99
2022-10-17T07:27:21.150Z,18.05
2022-10-17T07:29:50.667Z,18.10
2022-10-17T07:32:26.480Z,18.07
2022-10-17T07:34:55.793Z,18.01
2022-10-17T07:37:25.069Z,18.13
2022-10-17T07:39:58.076Z,18.16
2022-10-17T07:42:28.555Z,18.24
2022-10-17T07:44:58.149Z,18.25
2022-10-17T07:47:31.424Z,18.24
2022-10-17T07:50:02.188Z,18.32
2022-10-17T07:52:31.855Z,18.40
2022-10-17T07:55:01.554Z,18.35
2022-10-17T07:57:31.004Z,18.40
2022-10-17T08:00:00.232Z,18.39
2022-10-17T08:02:30.900Z,18.44
2022-10-17T08:05:00.451Z,18.42
2022-10-17T08:07:29.800Z,18.41
2022-10-17T08:09:59.185Z,18.43
2022-10-17T08:12:32.528Z,18.50
2022-10-17T08:15:02.198Z,18.62
2022-10-17T08:17:31.503Z,18.77
2022-10-17T08:20:00.768Z,18.94
2022-10-17T08:22:30.318Z,19.09
2022-10-17T08:24:59.820Z,19.15
2022-10-17T08:27:29.051Z,19.18
2022-10-17T08:29:58.375Z,19.28
2022-10-17T08:32:30.487Z,19.39
2022-10-17T08:35:00.072Z,19.58
2022-10-17T08:37:30.444Z,19.81
2022-10-17T08:39:59.942Z,19.89
2022-10-17T08:43:02.108Z,19.89
2022-10-17T08:46:00.526Z,19.94
2022-10-17T08:48:33.946Z,19.91
2022-10-17T08:51:15.955Z,19.92
2022-10-17T08:53:52.331Z,19.96
2022-10-17T08:56:44.099Z,19.98
2022-10-17T08:59:16.536Z,19.96
2022-10-17T09:01:58.259Z,19.90
2022-10-17T09:05:05.026Z,19.93
2022-10-17T09:07:48.821Z,19.98
2022-10-17T09:10:31.448Z,19.97
2022-10-17T09:13:42.580Z,19.88
2022-10-17T09:16:41.684Z,19.88
2022-10-17T09:19:25.998Z,19.87
2022-10-17T09:21:59.981Z,19.93
2022-10-17T09:24:45.807Z,19.99
2022-10-17T09:27:25.280Z,20.13
2022-10-17T09:30:07.169Z,20.13
2022-10-17T09:32:41.099Z,20.25
2022-10-17T09:35:16.365Z,20.22
2022-10-17T09:37:46.255Z,20.25
2022-10-17T09:40:25.307Z,20.22
2022-10-17T09:42:55.124Z,20.14
2022-10-17T09:45:27.635Z,20.09
2022-10-17T09:48:02.580Z,20.05
2022-10-17T09:50:35.059Z,19.96
2022-10-17T09:53:18.440Z,19.73
2022-10-17T09:55:51.834Z,19.59
2022-10-17T09:58:23.240Z,19.43
2022-10-17T10:00:52.555Z,19.38
2022-10-17T10:03:22.997Z,19.30
2022-10-17T10:06:05.783Z,19.24
2022-10-17T10:08:38.772Z,19.25
2022-10-17T10:11:13.996Z,19.26
2022-10-17T10:13:43.648Z,19.28
2022-10-17T10:16:34.453Z,19.31
2022-10-17T10:19:07.041Z,19.33
2022-10-17T10:21:38.384Z,19.31
2022-10-17T10:24:17.378Z,19.27
2022-10-17T10:26:53.038Z,19.28
2022-10-17T10:29:36.265Z,19.30
2022-10-17T10:32:24.707Z,19.30
2022-10-17T10:34:59.011Z,19.36
2022-10-17T10:37:32.932Z,19.37
2022-10-17T10:40:05.597Z,19.29
2022-10-17T10:42:38.558Z,19.30
2022-10-17T10:45:42.947Z,19.33
2022-10-17T10:48:21.734Z,19.37
2022-10-17T10:50:58.736Z,19.41
2022-10-17T10:53:48.569Z,19.32
2022-10-17T10:56:30.961Z,19.33
2022-10-17T10:59:20.046Z,19.28
2022-10-17T11:02:17.849Z,19.30
2022-10-17T11:04:55.937Z,19.37
2022-10-17T11:08:03.000Z,19.47
2022-10-17T11:11:06.494Z,19.59
2022-10-17T11:13:54.300Z,19.69
2022-10-17T11:16:42.627Z,19.65
2022-10-17T11:19:21.079Z,19.66
2022-10-17T11:21:55.687Z,19.70
2022-10-17T11:24:32.908Z,19.71
2022-10-17T11:27:05.761Z,19.77
2022-10-17T11:29:39.394Z,19.78
2022-10-17T11:32:16.304Z,19.72
2022-10-17T11:34:50.954Z,19.71
2022-10-17T11:37:28.143Z,19.64
2022-10-17T11:40:02.764Z,19.59
2022-10-17T11:42:37.543Z,19.56
2022-10-17T11:45:14.173Z,19.55
2022-10-17T11:47:54.367Z,19.58
2022-10-17T11:53:31.836Z,19.64
2022-10-17T11:56:03.787Z,19.65
2022-10-17T11:58:39.561Z,19.68
2022-10-17T12:01:15.275Z,19.68
2022-10-17T12:04:09.716Z,19.69
2022-10-17T12:07:20.250Z,19.64
2022-10-17T12:10:17.306Z,19.67
2022-10-17T12:12:48.205Z,19.66
2022-10-17T12:15:23.595Z,19.69
2022-10-17T12:18:06.676Z,19.74
2022-10-17T12:20:38.453Z,19.77
2022-10-17T12:23:23.192Z,19.80
2022-10-17T12:25:59.638Z,19.85
2022-10-17T12:28:45.089Z,19.90
2022-10-17T12:31:21.787Z,19.98
2022-10-17T12:33:56.468Z,20.01
2022-10-17T12:36:25.798Z,20.02
2022-10-17T12:39:04.240Z,19.96
2022-10-17T12:41:44.440Z,20.00
2022-10-17T12:44:16.824Z,20.05
2022-10-17T12:47:00.680Z,19.88
2022-10-17T12:49:56.498Z,20.01
2022-10-17T12:52:36.658Z,20.09
2022-10-17T12:55:12.264Z,20.02
2022-10-17T12:57:50.180Z,20.00
2022-10-17T13:00:25.617Z,20.01
2022-10-17T13:02:58.115Z,20.01
2022-10-17T13:05:32.562Z,19.99
2022-10-17T13:08:04.129Z,20.02
2022-10-17T13:10:39.653Z,20.04
2022-10-17T13:13:20.882Z,20.03
2022-10-17T13:15:54.637Z,20.03
2022-10-17T13:18:27.544Z,20.01
2022-10-17T13:21:07.931Z,20.09
2022-10-17T13:23:40.490Z,20.15
2022-10-17T13:26:14.687Z,20.20
2022-10-17T13:28:45.486Z,20.20
2022-10-17T13:31:34.568Z,20.24
2022-10-17T13:34:06.294Z,20.29
2022-10-17T13:36:37.615Z,20.24
2022-10-17T13:39:16.850Z,20.23
2022-10-17T13:41:46.508Z,20.10
2022-10-17T13:44:28.586Z,20.04
2022-10-17T13:46:59.412Z,19.95
2022-10-17T13:49:36.969Z,19.99
2022-10-17T13:52:09.023Z,19.96
2022-10-17T13:54:43.787Z,19.93
2022-10-17T13:57:23.976Z,19.89
2022-10-17T13:59:56.388Z,19.86
2022-10-17T14:02:28.536Z,19.89
2022-10-17T14:05:18.190Z,19.91
2022-10-17T14:08:11.290Z,19.88
2022-10-17T14:10:43.911Z,19.87
2022-10-17T14:13:25.347Z,19.85
2022-10-17T14:15:57.482Z,19.81
2022-10-17T14:18:35.692Z,19.80
2022-10-17T14:24:16.403Z,19.73
2022-10-17T14:26:53.325Z,19.71
2022-10-17T14:29:34.628Z,19.69
2022-10-17T14:32:10.215Z,19.62
2022-10-17T14:34:42.376Z,19.58
2022-10-17T14:37:27.997Z,19.55
2022-10-17T14:39:57.874Z,19.50
2022-10-17T14:42:30.380Z,19.50
2022-10-17T14:45:09.637Z,19.52
2022-10-17T14:47:43.618Z,19.48
2022-10-17T14:50:13.383Z,19.43
2022-10-17T14:52:43.223Z,19.45
2022-10-17T14:55:30.131Z,19.43
2022-10-17T14:58:02.303Z,19.43
2022-10-17T15:00:31.734Z,19.45
2022-10-17T15:03:01.097Z,19.48
2022-10-17T15:05:30.454Z,19.53
2022-10-17T15:08:02.068Z,19.51
2022-10-17T15:10:37.255Z,19.53
2022-10-17T15:15:56.227Z,19.47
2022-10-17T15:18:25.495Z,19.48
2022-10-17T15:21:04.585Z,19.56
2022-10-17T15:23:35.998Z,19.57
2022-10-17T15:26:05.344Z,19.46
2022-10-17T15:28:34.675Z,19.43
2022-10-17T15:31:04.012Z,19.41
2022-10-17T15:33:33.298Z,19.43
2022-10-17T15:36:03.162Z,19.44
2022-10-17T15:38:36.454Z,19.41
2022-10-17T15:41:05.745Z,19.40
2022-10-17T15:43:35.051Z,19.35
2022-10-17T15:46:05.075Z,19.34
2022-10-17T15:48:34.595Z,19.32
2022-10-17T15:51:03.853Z,19.33
2022-10-17T15:53:33.166Z,19.31
2022-10-17T15:56:03.001Z,19.25
2022-10-17T15:58:41.829Z,19.22
2022-10-17T16:01:22.899Z,19.23
2022-10-17T16:03:53.368Z,19.19
2022-10-17T16:06:24.489Z,19.21
2022-10-17T16:08:54.767Z,19.16
2022-10-17T16:11:37.916Z,19.15
2022-10-17T16:14:10.145Z,19.13
2022-10-17T16:16:39.424Z,19.12
2022-10-17T16:19:09.134Z,19.04
2022-10-17T16:21:42.156Z,19.01
2022-10-17T16:24:13.835Z,18.99
2022-10-17T16:26:43.810Z,18.92
2022-10-17T16:29:13.176Z,18.90
2022-10-17T16:31:45.675Z,18.90
2022-10-17T16:34:16.761Z,18.81
2022-10-17T16:36:46.202Z,18.81
2022-10-17T16:39:15.579Z,18.80
2022-10-17T16:41:44.927Z,18.77
2022-10-17T16:44:17.512Z,18.79
2022-10-17T16:46:47.304Z,18.77
2022-10-17T16:49:18.517Z,18.73
2022-10-17T16:51:47.803Z,18.74
2022-10-17T16:54:17.091Z,18.72
2022-10-17T16:56:46.366Z,18.63
2022-10-17T16:59:15.630Z,18.66
2022-10-17T17:01:45.076Z,18.64
2022-10-17T17:04:14.380Z,18.61
2022-10-17T17:09:33.130Z,18.58
2022-10-17T17:12:02.560Z,18.56
2022-10-17T17:14:31.837Z,18.51
2022-10-17T17:17:01.104Z,18.48
2022-10-17T17:19:30.480Z,18.48
2022-10-17T17:21:59.767Z,18.46
2022-10-17T17:24:32.239Z,18.48
2022-10-17T17:27:01.653Z,18.50
2022-10-17T17:29:30.934Z,18.49
2022-10-17T17:32:00.232Z,18.51
2022-10-17T17:34:29.592Z,18.53
2022-10-17T17:36:58.871Z,18.45
2022-10-17T17:39:29.611Z,18.51
2022-10-17T17:41:58.976Z,18.45
2022-10-17T17:44:30.774Z,18.42
2022-10-17T17:47:00.133Z,18.35
2022-10-17T17:49:31.184Z,18.30
2022-10-17T17:54:50.245Z,18.25
2022-10-17T17:57:19.533Z,18.21
2022-10-17T17:59:49.834Z,18.18
2022-10-17T18:02:19.410Z,18.18
2022-10-17T18:04:49.033Z,18.14
2022-10-17T18:07:18.298Z,18.07
2022-10-17T18:09:48.143Z,18.09
2022-10-17T18:12:17.526Z,18.05
2022-10-17T18:14:46.821Z,17.98
2022-10-17T18:17:16.298Z,17.99
2022-10-17T18:19:45.593Z,18.00
2022-10-17T18:22:14.924Z,18.00
2022-10-17T18:24:44.278Z,18.01
2022-10-17T18:27:15.964Z,17.97
2022-10-17T18:29:48.769Z,17.98
2022-10-17T18:32:18.267Z,17.97
2022-10-17T18:34:47.606Z,17.96
2022-10-17T18:37:16.861Z,17.92
2022-10-17T18:39:48.467Z,18.01
2022-10-17T18:42:17.743Z,18.04
2022-10-17T18:44:47.052Z,18.07
2022-10-17T18:47:16.311Z,18.04
2022-10-17T18:49:45.671Z,18.05
2022-10-17T18:52:14.939Z,18.04
2022-10-17T18:54:44.289Z,17.98
2022-10-17T18:57:13.625Z,17.99
2022-10-17T18:59:42.888Z,17.96
2022-10-17T19:02:13.518Z,17.98
2022-10-17T19:04:42.905Z,17.97
2022-10-17T19:07:12.271Z,17.94
2022-10-17T19:09:42.615Z,17.96
2022-10-17T19:12:11.879Z,17.98
2022-10-17T19:14:41.252Z,17.93
2022-10-17T19:17:10.534Z,17.93
2022-10-17T19:19:40.019Z,17.88
2022-10-17T19:22:09.660Z,17.90
2022-10-17T19:24:38.974Z,17.89
2022-10-17T19:27:08.252Z,17.91
2022-10-17T19:29:37.512Z,17.85
2022-10-17T19:32:14.128Z,17.86
2022-10-17T19:34:46.223Z,17.78
2022-10-17T19:37:15.539Z,17.83
2022-10-17T19:39:45.110Z,17.91
2022-10-17T19:42:14.403Z,17.90
2022-10-17T19:44:43.824Z,17.86
2022-10-17T19:47:13.411Z,17.89
2022-10-17T19:49:46.501Z,17.84
2022-10-17T19:52:18.425Z,17.86
2022-10-17T19:54:47.672Z,17.91
2022-10-17T19:57:16.955Z,17.91
2022-10-17T19:59:46.251Z,17.91
2022-10-17T20:02:16.146Z,17.93
2022-10-17T20:04:54.493Z,17.92
2022-10-17T20:07:29.388Z,17.91
2022-10-17T20:09:58.658Z,17.90
2022-10-17T20:12:28.363Z,17.89
2022-10-17T20:14:57.797Z,17.82
2022-10-17T20:17:27.138Z,17.94
2022-10-17T20:19:56.487Z,17.95
2022-10-17T20:22:25.752Z,17.96
2022-10-17T20:24:55.020Z,17.90
2022-10-17T20:27:27.711Z,17.89
2022-10-17T20:30:01.660Z,17.86
2022-10-17T20:32:32.755Z,17.88
2022-10-17T20:35:02.273Z,17.70
2022-10-17T20:37:31.796Z,17.84
2022-10-17T20:40:29.432Z,17.82
2022-10-17T20:42:50.609Z,17.84
2022-10-17T20:45:32.021Z,17.87
2022-10-17T20:48:09.895Z,17.79
2022-10-17T20:50:40.229Z,17.85
2022-10-17T20:53:31.842Z,17.85
2022-10-17T20:56:14.131Z,17.91
2022-10-17T20:58:43.474Z,17.90
2022-10-17T21:01:13.509Z,17.82
2022-10-17T21:03:46.392Z,17.68
2022-10-17T21:06:17.372Z,17.68
2022-10-17T21:08:47.855Z,17.72
2022-10-17T21:11:27.457Z,17.72
2022-10-17T21:14:07.826Z,17.65
2022-10-17T21:16:38.917Z,17.56
2022-10-17T21:19:08.956Z,17.66
2022-10-17T21:21:40.926Z,17.70
2022-10-17T21:24:14.436Z,17.65
2022-10-17T21:26:45.009Z,17.62
2022-10-17T21:29:17.151Z,17.53
2022-10-17T21:31:46.856Z,17.54
2022-10-17T21:34:18.953Z,17.51
2022-10-17T21:36:48.430Z,17.46
2022-10-17T21:39:18.361Z,17.43
2022-10-17T21:41:47.700Z,17.39
2022-10-17T21:44:19.757Z,17.42
2022-10-17T21:46:49.776Z,17.27
2022-10-17T21:49:22.124Z,17.36
2022-10-17T21:51:51.860Z,17.38
2022-10-17T21:54:23.021Z,17.36
2022-10-17T21:56:53.287Z,17.25
2022-10-17T21:59:22.599Z,17.20
2022-10-17T22:01:51.926Z,17.17
2022-10-17T22:04:22.248Z,17.16
2022-10-17T22:06:53.666Z,17.16
2022-10-17T22:09:26.316Z,17.21
2022-10-17T22:11:58.191Z,17.22
2022-10-17T22:14:29.421Z,17.16
2022-10-17T22:16:58.744Z,17.19
2022-10-17T22:19:29.382Z,17.19
2022-10-17T22:21:58.735Z,17.12
2022-10-17T22:24:28.081Z,17.04
2022-10-17T22:26:57.379Z,17.06
2022-10-17T22:29:26.710Z,17.11
2022-10-17T22:31:56.035Z,17.09
2022-10-17T22:34:25.276Z,17.08
2022-10-17T22:36:54.812Z,17.06
2022-10-17T22:39:24.046Z,17.02
2022-10-17T22:41:53.368Z,17.00
2022-10-17T22:44:22.667Z,17.00
2022-10-17T22:46:52.114Z,17.00
2022-10-17T22:49:21.383Z,16.98
2022-10-17T22:51:50.647Z,16.99
2022-10-17T22:54:20.043Z,16.95
2022-10-17T22:56:49.335Z,16.95
2022-10-17T22:59:18.937Z,16.97
2022-10-17T23:01:48.321Z,16.93
2022-10-17T23:04:17.655Z,16.75
2022-10-17T23:06:46.921Z,16.85
2022-10-17T23:09:16.752Z,16.91
2022-10-17T23:11:46.072Z,16.94
2022-10-17T23:14:15.605Z,16.97
2022-10-17T23:16:44.873Z,16.91
2022-10-17T23:19:14.128Z,16.84
2022-10-17T23:21:43.453Z,16.77
2022-10-17T23:24:12.765Z,16.72
2022-10-17T23:26:42.175Z,16.68
2022-10-17T23:29:11.526Z,16.60
2022-10-17T23:31:40.851Z,16.49
2022-10-17T23:34:10.115Z,16.54
2022-10-17T23:36:39.431Z,16.56
2022-10-17T23:39:09.484Z,16.55
2022-10-17T23:41:38.746Z,16.62
2022-10-17T23:44:08.411Z,16.60
2022-10-17T23:46:37.664Z,16.61
2022-10-17T23:49:08.866Z,16.54
2022-10-17T23:51:38.182Z,16.53
2022-10-17T23:54:07.842Z,16.49
2022-10-17T23:56:37.449Z,16.51
2022-10-17T23:59:06.866Z,16.47
